Aviation Digital Data Service (ADDS)

Output produced by METARs form (2110 UTC 20 August 2019)
found at http://www.aviationweather.gov/metar/data/
 
Forecast for: LEGT (MADRID/GETAFE (A, ES)
Text: TAF LEGT 201700Z 2018/2103 03010KT 9999 FEW045
Forecast period: 1800 UTC 20 August 2019 to 0300 UTC 21 August 2019
Forecast type: FROM: standard forecast or significant change
Winds: from the NNE (30 degrees) at 12 MPH (10 knots; 5.1 m/s)
Visibility: 6 or more miles 10+ km)
Ceiling: at least 12,000 feet AGL
Clouds: few clouds at 4500 feet AGL
Weather: no significant weather forecast for this period
Text: PROB40
Forecast period: 1800 to 2200 UTC 20 August 2019
Forecast type: TEMPORARY: The following changes expected for less than half the time period
Visibility: missing
Ceiling: at least 12,000 feet AGL
Clouds: few clouds at 4500 feet AGL
Weather: no significant weather forecast for this period
Text: TEMPO 2018/2022 FEW045TCU
Forecast period: 1800 to 2200 UTC 20 August 2019
Forecast type: TEMPORARY: The following changes expected for less than half the time period
Winds: from the NE (40 degrees) at 17 MPH (15 knots; 7.7 m/s)
gusting to 29 MPH (25 knots; 12.9 m/s)
Visibility: missing
Ceiling: unknown
Clouds: missing
Weather: no significant weather forecast for this period